createdAt,value
2023-01-21T00:00:58.871Z,27.25
2023-01-21T00:04:00.508Z,23.52
2023-01-21T00:07:02.312Z,27.13
2023-01-21T00:10:04.375Z,23.08
2023-01-21T00:13:05.994Z,24.45
2023-01-21T00:16:08.301Z,29.35
2023-01-21T00:19:09.965Z,22.87
2023-01-21T00:22:11.757Z,27.42
2023-01-21T00:25:13.486Z,29.90
2023-01-21T00:28:15.111Z,26.65
2023-01-21T00:31:17.094Z,28.98
2023-01-21T00:34:18.833Z,27.30
2023-01-21T00:37:20.508Z,24.05
2023-01-21T00:40:22.357Z,27.37
2023-01-21T00:43:23.964Z,31.55
2023-01-21T00:46:25.990Z,28.65
2023-01-21T00:49:28.979Z,27.90
2023-01-21T00:52:31.008Z,38.13
2023-01-21T00:55:32.648Z,31.62
2023-01-21T00:58:35.192Z,32.13
2023-01-21T01:01:38.610Z,31.40
2023-01-21T01:04:40.405Z,35.85
2023-01-21T01:07:46.234Z,28.87
2023-01-21T01:10:48.366Z,32.83
2023-01-21T01:13:50.099Z,34.42
2023-01-21T01:16:51.706Z,34.75
2023-01-21T01:19:53.479Z,34.22
2023-01-21T01:22:55.098Z,33.70
2023-01-21T01:26:02.362Z,32.67
2023-01-21T01:29:05.289Z,37.78
2023-01-21T01:32:06.955Z,33.80
2023-01-21T01:35:09.072Z,36.03
2023-01-21T01:38:10.696Z,31.92
2023-01-21T01:41:19.362Z,31.33
2023-01-21T01:44:48.930Z,35.50
2023-01-21T01:48:00.004Z,28.98
2023-01-21T01:51:04.541Z,32.10
2023-01-21T01:54:07.934Z,32.08
2023-01-21T01:57:13.216Z,29.30
2023-01-21T02:00:16.009Z,31.17
2023-01-21T02:03:37.225Z,34.17
2023-01-21T02:06:40.906Z,32.88
2023-01-21T02:09:42.691Z,33.63
2023-01-21T02:12:44.689Z,33.95
2023-01-21T02:16:14.452Z,32.50
2023-01-21T02:19:25.195Z,34.85
2023-01-21T02:22:51.838Z,29.77
2023-01-21T02:26:35.532Z,30.02
2023-01-21T02:30:07.133Z,31.02
2023-01-21T02:33:18.026Z,32.55
2023-01-21T02:36:31.482Z,29.80
2023-01-21T02:39:45.376Z,29.37
2023-01-21T02:42:51.081Z,32.95
2023-01-21T02:46:21.287Z,29.20
2023-01-21T02:49:31.366Z,30.52
2023-01-21T02:52:33.135Z,27.27
2023-01-21T02:55:38.873Z,29.48
2023-01-21T02:58:47.575Z,34.63
2023-01-21T03:02:04.324Z,30.65
2023-01-21T03:05:11.983Z,33.13
2023-01-21T03:08:28.088Z,35.35
2023-01-21T03:11:29.909Z,30.50
2023-01-21T03:15:02.146Z,31.98
2023-01-21T03:18:34.330Z,31.80
2023-01-21T03:21:36.716Z,32.65
2023-01-21T03:24:42.425Z,30.85
2023-01-21T03:27:47.670Z,31.52
2023-01-21T03:31:24.233Z,30.40
2023-01-21T03:34:29.549Z,30.37
2023-01-21T03:37:38.158Z,28.80
2023-01-21T03:40:46.497Z,32.72
2023-01-21T03:43:48.743Z,33.33
2023-01-21T03:47:09.179Z,30.25
2023-01-21T03:50:20.299Z,34.08
2023-01-21T03:53:22.331Z,31.62
2023-01-21T03:56:26.483Z,32.22
2023-01-21T03:59:28.121Z,33.03
2023-01-21T04:02:29.930Z,34.65
2023-01-21T04:05:31.588Z,32.08
2023-01-21T04:08:33.255Z,31.08
2023-01-21T04:11:34.899Z,32.55
2023-01-21T04:14:37.016Z,31.83
2023-01-21T04:17:38.888Z,30.67
2023-01-21T04:20:40.585Z,57.90
2023-01-21T04:23:42.253Z,58.22
2023-01-21T04:26:43.943Z,64.07
2023-01-21T04:29:45.580Z,66.05
2023-01-21T04:32:47.249Z,43.90
2023-01-21T04:35:48.904Z,37.22
2023-01-21T04:38:52.214Z,32.97
2023-01-21T04:41:53.912Z,31.87
2023-01-21T04:44:55.522Z,31.25
2023-01-21T04:47:57.269Z,28.70
2023-01-21T04:50:59.151Z,31.73
2023-01-21T04:54:00.855Z,27.42
2023-01-21T04:57:02.609Z,30.58
2023-01-21T05:00:07.026Z,30.60
2023-01-21T05:03:08.707Z,33.22
2023-01-21T05:06:10.665Z,30.33
2023-01-21T05:09:12.425Z,33.92
2023-01-21T05:12:14.112Z,29.02
2023-01-21T05:15:16.010Z,30.67
2023-01-21T05:18:17.676Z,40.15
2023-01-21T05:21:19.364Z,61.03
2023-01-21T05:24:21.133Z,71.03
2023-01-21T05:27:22.943Z,54.28
2023-01-21T05:30:24.858Z,59.40
2023-01-21T05:33:33.392Z,69.28
2023-01-21T05:36:37.894Z,45.08
2023-01-21T05:39:39.637Z,34.13
2023-01-21T05:42:41.360Z,34.80
2023-01-21T05:45:43.000Z,32.80
2023-01-21T05:48:45.059Z,32.35
2023-01-21T05:51:46.735Z,37.30
2023-01-21T05:55:01.054Z,37.70
2023-01-21T05:58:04.368Z,37.97
2023-01-21T06:01:06.051Z,35.63
2023-01-21T06:04:07.828Z,36.03
2023-01-21T06:07:09.499Z,41.13
2023-01-21T06:10:11.523Z,33.50
2023-01-21T06:13:14.968Z,37.70
2023-01-21T06:16:16.780Z,37.13
2023-01-21T06:19:18.484Z,37.83
2023-01-21T06:22:20.493Z,37.47
2023-01-21T06:25:22.295Z,35.00
2023-01-21T06:28:24.043Z,32.83
2023-01-21T06:31:26.265Z,35.33
2023-01-21T06:34:28.030Z,32.80
2023-01-21T06:37:30.341Z,38.75
2023-01-21T06:40:32.060Z,36.83
2023-01-21T06:43:33.769Z,33.63
2023-01-21T06:46:35.590Z,39.80
2023-01-21T06:49:37.295Z,34.83
2023-01-21T06:52:42.542Z,47.47
2023-01-21T06:55:44.278Z,63.00
2023-01-21T06:58:45.995Z,55.80
2023-01-21T07:01:47.693Z,48.22
2023-01-21T07:04:51.405Z,45.65
2023-01-21T07:07:57.834Z,43.33
2023-01-21T07:10:59.623Z,43.80
2023-01-21T07:14:01.330Z,42.72
2023-01-21T07:17:02.992Z,41.65
2023-01-21T07:20:05.613Z,40.08
2023-01-21T07:23:07.269Z,37.40
2023-01-21T07:26:09.301Z,37.00
2023-01-21T07:29:11.011Z,39.22
2023-01-21T07:32:12.685Z,39.08
2023-01-21T07:35:14.759Z,37.95
2023-01-21T07:38:16.891Z,48.35
2023-01-21T07:41:18.530Z,55.33
2023-01-21T07:44:20.159Z,51.53
2023-01-21T07:47:21.783Z,53.00
2023-01-21T07:50:23.428Z,62.28
2023-01-21T07:53:25.101Z,60.10
2023-01-21T07:56:27.254Z,53.78
2023-01-21T07:59:28.867Z,44.67
2023-01-21T08:02:30.626Z,57.83
2023-01-21T08:05:32.959Z,47.47
2023-01-21T08:08:34.688Z,47.92
2023-01-21T08:11:36.603Z,42.38
2023-01-21T08:14:39.093Z,42.67
2023-01-21T08:17:43.089Z,42.47
2023-01-21T08:20:44.910Z,51.50
2023-01-21T08:23:46.971Z,39.22
2023-01-21T08:26:49.178Z,44.05
2023-01-21T08:29:50.824Z,48.30
2023-01-21T08:32:52.508Z,43.13
2023-01-21T08:35:59.893Z,37.22
2023-01-21T08:39:02.093Z,32.30
2023-01-21T08:42:03.990Z,36.08
2023-01-21T08:45:06.468Z,30.45
2023-01-21T08:48:08.126Z,28.27
2023-01-21T08:51:09.868Z,27.23
2023-01-21T08:54:11.506Z,31.55
2023-01-21T08:57:13.217Z,27.40
2023-01-21T09:00:15.401Z,19.83
2023-01-21T09:03:17.860Z,20.83
2023-01-21T09:06:19.478Z,21.00
2023-01-21T09:09:21.113Z,24.55
2023-01-21T09:12:22.770Z,22.00
2023-01-21T09:15:24.397Z,21.17
2023-01-21T09:18:26.191Z,19.20
2023-01-21T09:21:29.482Z,17.50
2023-01-21T09:24:31.915Z,17.87
2023-01-21T09:27:33.529Z,15.85
2023-01-21T09:30:35.159Z,16.92
2023-01-21T09:33:38.700Z,18.25
2023-01-21T09:36:40.432Z,16.00
2023-01-21T09:39:42.141Z,14.85
2023-01-21T09:42:44.046Z,13.85
2023-01-21T09:45:47.969Z,11.80
2023-01-21T09:48:50.721Z,11.68
2023-01-21T09:52:27.622Z,10.55
2023-01-21T09:55:46.856Z,10.90
2023-01-21T09:58:57.519Z,9.85
2023-01-21T10:02:01.667Z,8.90
2023-01-21T10:05:21.478Z,10.20
2023-01-21T10:08:41.823Z,8.40
2023-01-21T10:12:01.795Z,9.18
2023-01-21T10:15:06.951Z,9.63
2023-01-21T10:18:15.307Z,6.72
2023-01-21T10:21:44.235Z,11.85
2023-01-21T10:24:53.763Z,8.00
2023-01-21T10:27:59.757Z,6.12
2023-01-21T10:31:49.442Z,10.18
2023-01-21T10:34:53.301Z,11.30
2023-01-21T10:38:07.105Z,7.60
2023-01-21T10:41:30.157Z,6.57
2023-01-21T10:44:52.571Z,5.78
2023-01-21T10:48:25.541Z,5.60
2023-01-21T10:51:48.544Z,4.22
2023-01-21T10:55:15.580Z,7.90
2023-01-21T10:58:37.157Z,4.55
2023-01-21T11:01:42.199Z,9.25
2023-01-21T11:04:44.586Z,6.82
2023-01-21T11:07:48.240Z,6.35
2023-01-21T11:10:55.287Z,9.90
2023-01-21T11:13:57.055Z,9.00
2023-01-21T11:16:58.741Z,7.95
2023-01-21T11:20:02.956Z,10.13
2023-01-21T11:23:06.161Z,7.97
2023-01-21T11:26:35.701Z,8.43
2023-01-21T11:29:41.368Z,10.45
2023-01-21T11:32:43.087Z,8.70
2023-01-21T11:35:45.193Z,6.32
2023-01-21T11:38:59.849Z,7.32
2023-01-21T11:42:08.187Z,11.52
2023-01-21T11:45:28.638Z,12.70
2023-01-21T11:48:30.355Z,15.77
2023-01-21T11:51:32.761Z,17.52
2023-01-21T11:54:40.196Z,15.35
2023-01-21T11:57:42.157Z,17.80
2023-01-21T12:00:47.024Z,18.73
2023-01-21T12:03:53.355Z,13.68
2023-01-21T12:06:58.704Z,17.55
2023-01-21T12:10:19.879Z,13.23
2023-01-21T12:13:43.026Z,15.88
2023-01-21T12:16:50.640Z,13.13
2023-01-21T12:20:03.127Z,12.50
2023-01-21T12:23:25.762Z,13.43
2023-01-21T12:26:47.774Z,14.32
2023-01-21T12:30:16.934Z,14.13
2023-01-21T12:33:21.467Z,14.82
2023-01-21T12:36:27.956Z,16.33
2023-01-21T12:39:34.284Z,17.15
2023-01-21T12:42:41.148Z,14.68
2023-01-21T12:45:55.385Z,13.00
2023-01-21T12:49:06.501Z,16.15
2023-01-21T12:52:34.839Z,12.45
2023-01-21T12:55:58.263Z,10.68
2023-01-21T12:59:08.933Z,11.70
2023-01-21T13:02:32.266Z,13.50
2023-01-21T13:05:43.245Z,12.27
2023-01-21T13:09:07.883Z,13.70
2023-01-21T13:12:18.792Z,12.45
2023-01-21T13:15:24.024Z,26.87
2023-01-21T13:18:51.504Z,22.17
2023-01-21T13:22:34.548Z,18.37
2023-01-21T13:25:59.700Z,22.90
2023-01-21T13:29:39.547Z,23.15
2023-01-21T13:32:59.717Z,23.23
2023-01-21T13:36:35.080Z,15.57
2023-01-21T13:39:44.211Z,37.95
2023-01-21T13:43:25.241Z,22.73
2023-01-21T13:46:33.242Z,22.20
2023-01-21T13:49:47.001Z,20.10
2023-01-21T13:53:00.501Z,21.23
2023-01-21T13:56:26.757Z,16.37
2023-01-21T13:59:38.891Z,18.17
2023-01-21T14:03:22.253Z,18.12
2023-01-21T14:06:27.143Z,14.48
2023-01-21T14:10:21.016Z,19.37
2023-01-21T14:13:22.648Z,13.82
2023-01-21T14:16:26.840Z,12.85
2023-01-21T14:19:31.163Z,15.30
2023-01-21T14:22:35.691Z,14.45
2023-01-21T14:25:55.343Z,18.92
2023-01-21T14:29:09.706Z,18.80
2023-01-21T14:32:21.541Z,18.27
2023-01-21T14:35:32.872Z,23.35
2023-01-21T14:39:17.341Z,21.05
2023-01-21T14:42:26.362Z,18.95
2023-01-21T14:45:52.423Z,17.20
2023-01-21T14:49:08.667Z,20.98
2023-01-21T14:52:19.163Z,21.50
2023-01-21T14:55:31.372Z,18.98
2023-01-21T14:58:36.062Z,28.00
2023-01-21T15:01:45.104Z,38.78
2023-01-21T15:05:00.530Z,26.33
2023-01-21T15:08:25.804Z,36.50
2023-01-21T15:11:38.125Z,25.27
2023-01-21T15:14:42.460Z,21.77
2023-01-21T15:17:53.742Z,24.25
2023-01-21T15:21:00.808Z,25.05
2023-01-21T15:24:27.334Z,27.40
2023-01-21T15:27:32.635Z,28.25
2023-01-21T15:30:54.073Z,24.25
2023-01-21T15:34:11.878Z,19.55
2023-01-21T15:37:21.052Z,21.25
2023-01-21T15:40:28.044Z,18.25
2023-01-21T15:43:40.794Z,15.13
2023-01-21T15:46:45.643Z,17.05
2023-01-21T15:49:54.337Z,13.45
2023-01-21T15:53:14.560Z,12.95
2023-01-21T15:56:53.819Z,13.93
2023-01-21T16:00:07.317Z,13.57
2023-01-21T16:03:35.808Z,12.40
2023-01-21T16:07:10.399Z,11.65
2023-01-21T16:10:27.621Z,13.70
2023-01-21T16:14:00.149Z,10.63
2023-01-21T16:17:23.033Z,12.37
2023-01-21T16:20:25.060Z,12.90
2023-01-21T16:23:35.671Z,11.15
2023-01-21T16:26:39.298Z,8.98
2023-01-21T16:29:41.447Z,10.50
2023-01-21T16:32:43.971Z,8.93
2023-01-21T16:35:50.396Z,9.57
2023-01-21T16:38:53.254Z,9.57
2023-01-21T16:42:04.117Z,24.77
2023-01-21T16:45:19.576Z,17.52
2023-01-21T16:48:25.336Z,14.30
2023-01-21T16:51:32.723Z,14.02
2023-01-21T16:54:35.163Z,25.52
2023-01-21T16:57:37.593Z,20.02
2023-01-21T17:00:39.775Z,17.75
2023-01-21T17:03:43.353Z,14.52
2023-01-21T17:06:46.341Z,12.32
2023-01-21T17:09:59.433Z,11.82
2023-01-21T17:13:08.530Z,8.93
2023-01-21T17:16:24.099Z,9.00
2023-01-21T17:19:33.308Z,8.18
2023-01-21T17:22:36.194Z,11.00
2023-01-21T17:25:38.439Z,11.45
2023-01-21T17:28:44.946Z,8.73
2023-01-21T17:31:55.821Z,8.82
2023-01-21T17:35:10.282Z,7.93
2023-01-21T17:38:29.295Z,8.63
2023-01-21T17:41:35.026Z,10.80
2023-01-21T17:44:37.565Z,9.50
2023-01-21T17:48:03.236Z,9.80
2023-01-21T17:51:07.230Z,7.43
2023-01-21T17:54:29.691Z,7.72
2023-01-21T17:57:36.476Z,5.93
2023-01-21T18:00:45.415Z,7.80
2023-01-21T18:03:48.175Z,8.75
2023-01-21T18:06:52.252Z,9.75
2023-01-21T18:09:55.848Z,9.05
2023-01-21T18:12:59.312Z,8.65
2023-01-21T18:16:01.429Z,10.48
2023-01-21T18:19:03.610Z,9.32
2023-01-21T18:22:07.119Z,10.77
2023-01-21T18:25:11.257Z,9.77
2023-01-21T18:28:19.420Z,9.70
2023-01-21T18:31:23.064Z,10.38
2023-01-21T18:34:25.748Z,11.45
2023-01-21T18:37:27.762Z,12.82
2023-01-21T18:40:30.056Z,10.65
2023-01-21T18:43:32.791Z,9.43
2023-01-21T18:46:43.013Z,12.05
2023-01-21T18:49:48.629Z,11.07
2023-01-21T18:52:51.205Z,11.45
2023-01-21T18:55:54.932Z,8.40
2023-01-21T18:58:57.716Z,10.13
2023-01-21T19:02:00.246Z,11.40
2023-01-21T19:05:04.176Z,14.23
2023-01-21T19:08:16.943Z,12.60
2023-01-21T19:11:19.536Z,12.98
2023-01-21T19:14:21.943Z,12.20
2023-01-21T19:17:30.347Z,13.00
2023-01-21T19:20:32.581Z,13.52
2023-01-21T19:23:38.272Z,11.63
2023-01-21T19:26:40.600Z,11.12
2023-01-21T19:29:42.759Z,12.40
2023-01-21T19:32:44.831Z,13.18
2023-01-21T19:36:12.468Z,11.57
2023-01-21T19:39:19.902Z,11.15
2023-01-21T19:45:28.689Z,12.00
2023-01-21T19:48:30.946Z,13.75
2023-01-21T19:51:33.295Z,12.90
2023-01-21T19:54:35.255Z,10.07
2023-01-21T19:57:38.574Z,11.52
2023-01-21T20:00:41.403Z,13.05
2023-01-21T20:03:58.755Z,11.27
2023-01-21T20:07:02.650Z,13.00
2023-01-21T20:10:15.438Z,15.05
2023-01-21T20:13:17.843Z,10.80
2023-01-21T20:16:23.957Z,12.30
2023-01-21T20:19:26.747Z,15.45
2023-01-21T20:22:29.126Z,12.40
2023-01-21T20:25:39.386Z,11.50
2023-01-21T20:28:47.220Z,11.50
2023-01-21T20:31:52.199Z,10.00
2023-01-21T20:34:54.901Z,13.10
2023-01-21T20:38:00.218Z,10.68
2023-01-21T20:41:04.239Z,12.20
2023-01-21T20:44:06.355Z,12.65
2023-01-21T20:47:11.266Z,13.95
2023-01-21T20:50:22.044Z,9.63
2023-01-21T20:53:24.711Z,8.50
2023-01-21T20:56:31.992Z,10.48
2023-01-21T20:59:35.060Z,11.60
2023-01-21T21:02:37.560Z,12.70
2023-01-21T21:05:40.702Z,13.40
2023-01-21T21:08:45.087Z,13.10
2023-01-21T21:11:47.271Z,13.30
2023-01-21T21:14:49.546Z,9.70
2023-01-21T21:17:51.463Z,10.63
2023-01-21T21:20:53.331Z,9.48
2023-01-21T21:23:55.458Z,10.77
2023-01-21T21:26:57.628Z,9.82
2023-01-21T21:29:59.791Z,8.95
2023-01-21T21:33:03.412Z,10.63
2023-01-21T21:36:05.597Z,9.73
2023-01-21T21:39:08.006Z,10.88
2023-01-21T21:42:31.141Z,9.93
2023-01-21T21:45:33.442Z,10.55
2023-01-21T21:48:38.317Z,10.27
2023-01-21T21:51:40.871Z,9.23
2023-01-21T21:54:43.082Z,9.07
2023-01-21T21:57:45.306Z,9.15
2023-01-21T22:00:47.270Z,10.13
2023-01-21T22:03:49.600Z,9.50
2023-01-21T22:06:51.630Z,8.85
2023-01-21T22:09:53.522Z,8.55
2023-01-21T22:12:55.287Z,10.07
2023-01-21T22:15:59.185Z,7.55
2023-01-21T22:19:01.864Z,8.95
2023-01-21T22:22:03.731Z,9.45
2023-01-21T22:25:06.940Z,8.30
2023-01-21T22:28:08.587Z,15.55
2023-01-21T22:31:17.075Z,8.82
2023-01-21T22:34:18.773Z,7.85
2023-01-21T22:37:20.431Z,11.30
2023-01-21T22:40:22.118Z,8.30
2023-01-21T22:43:23.829Z,7.78
2023-01-21T22:46:29.438Z,9.32
2023-01-21T22:49:31.178Z,11.98
2023-01-21T22:52:32.835Z,7.37
2023-01-21T22:55:36.439Z,7.05
2023-01-21T22:58:38.129Z,8.10
2023-01-21T23:01:40.140Z,7.05
2023-01-21T23:04:41.977Z,7.60
2023-01-21T23:07:43.604Z,7.97
2023-01-21T23:10:46.818Z,6.95
2023-01-21T23:13:53.436Z,7.25
2023-01-21T23:16:55.212Z,8.27
2023-01-21T23:19:56.902Z,6.65
2023-01-21T23:22:58.860Z,6.70
2023-01-21T23:26:02.086Z,6.68
2023-01-21T23:29:04.045Z,7.25
2023-01-21T23:32:05.937Z,7.37
2023-01-21T23:35:08.883Z,11.07
2023-01-21T23:38:10.532Z,9.13
2023-01-21T23:41:16.896Z,7.80
2023-01-21T23:44:18.692Z,7.53
2023-01-21T23:47:20.405Z,8.27
2023-01-21T23:50:22.222Z,7.30
2023-01-21T23:53:23.865Z,7.22
2023-01-21T23:56:26.221Z,7.25
2023-01-21T23:59:27.895Z,8.90
